Latest Weather Observations for Coonawarra

IDS60801

Issued at 11:05 am CST Tuesday 2 September 2014 (issued every 30 minutes, with the page automatically refreshed every 10 minutes)

About weather observations | Map of weather stations | Latest weather observations for SA | Other Formats
Station Details ID: 026091 Name: COONAWARRA Lat: -37.29 Lon: 140.83 Height: 57.0 m
Data from the previous 72 hours. | See also: Recent months at Coonawarra
Date/Time
CST
Temp
°C
App
Temp
°C
Dew
Point
Rel
Hum
%
Delta-T
°C
Wind Press
QNH
hPa
Press
MSL
hPa
Rain
since 9 am
mm
Dir
 
Spd
km/h
Gust
km/h
Spd
kts
Gust
kts
02/11:00am 13.7 7.7 3.5 50 4.6 S 24 35 13 19 1023.4 1023.5 0.0
02/10:30am 12.9 7.8 4.3 56 3.9 S 20 28 11 15 1023.7 1023.7 0.0
02/10:00am 12.0 7.0 4.8 61 3.3 S 20 30 11 16 1023.6 1023.6 0.0
02/09:30am 12.0 7.1 5.3 63 3.1 S 20 26 11 14 1023.3 1023.4 0.0
02/09:00am 11.0 7.8 7.0 76 1.9 SSW 13 19 7 10 1023.1 1023.2 2.6
02/08:30am 10.0 6.8 6.8 80 1.5 SSW 13 20 7 11 1022.9 1023.0 2.6
02/08:00am 9.3 6.0 6.5 83 1.3 S 13 17 7 9 1022.5 1022.6 2.6
02/07:30am 8.2 4.8 6.0 86 1.0 S 13 17 7 9 1022.1 1022.2 2.6
02/07:00am 5.3 2.0 4.6 95 0.3 SW 11 15 6 8 1021.8 1021.9 2.4
02/06:30am 1.9 0.2 1.6 98 0.1 CALM 0 6 0 3 1021.1 1021.2 2.2
02/06:00am 2.6 -0.2 2.1 96 0.2 SSE 6 9 3 5 1020.8 1020.9 2.2
02/05:30am 2.9 0.0 2.6 98 0.1 ESE 7 9 4 5 1019.9 1020.0 2.2
02/05:00am 2.9 0.0 2.6 98 0.1 S 7 9 4 5 1019.3 1019.4 2.2
02/04:30am 3.0 -0.7 2.5 96 0.2 S 11 11 6 6 1019.1 1019.2 2.2
02/04:00am 2.7 -0.7 1.9 94 0.3 SSW 9 11 5 6 1018.6 1018.7 2.2
02/03:30am 2.6 -0.4 2.1 96 0.2 SSW 7 11 4 6 1018.3 1018.4 2.2
02/03:00am 1.5 -1.6 1.2 98 0.1 SW 7 9 4 5 1017.9 1018.0 2.2
02/02:30am 1.6 -1.5 1.1 96 0.2 W 7 7 4 4 1017.8 1017.9 2.2
02/02:00am 1.9 -1.2 1.6 98 0.1 W 7 9 4 5 1017.7 1017.8 2.2
02/01:30am 2.4 0.7 2.1 98 0.1 CALM 0 0 0 0 1017.5 1017.6 2.2
02/01:00am 2.4 0.7 2.1 98 0.1 CALM 0 0 0 0 1017.3 1017.4 2.2
02/12:30am 2.9 1.2 2.1 94 0.3 CALM 0 0 0 0 1017.0 1017.1 2.2
02/12:00am 3.4 1.8 2.7 95 0.3 CALM 0 2 0 1 1017.0 1017.1 2.2
 
Date/Time
CST
Temp
°C
App
Temp
°C
Dew
Point
Rel
Hum
%
Delta-T
°C
Wind Press
QNH
hPa
Press
MSL
hPa
Rain
since 9 am
mm
Dir
 
Spd
km/h
Gust
km/h
Spd
kts
Gust
kts
01/11:30pm 4.0 0.9 3.5 97 0.2 W 9 11 5 6 1016.7 1016.8 2.2
01/11:00pm 3.9 1.1 3.4 97 0.2 W 7 9 4 5 1016.5 1016.5 2.2
01/10:30pm 3.9 1.1 3.2 95 0.3 W 7 9 4 5 1016.3 1016.3 2.2
01/10:00pm 4.1 0.5 3.1 93 0.4 WNW 11 15 6 8 1016.1 1016.1 2.2
01/09:30pm 4.2 1.1 3.5 95 0.3 W 9 11 5 6 1015.9 1015.9 2.2
01/09:00pm 4.6 1.9 3.9 95 0.3 W 7 9 4 5 1015.6 1015.6 2.2
01/08:30pm 4.7 2.0 3.7 93 0.4 W 7 9 4 5 1015.3 1015.3 2.2
01/08:00pm 5.2 2.5 3.8 91 0.6 W 7 9 4 5 1015.1 1015.1 2.2
01/07:30pm 6.4 4.1 4.6 88 0.8 WSW 6 6 3 3 1014.8 1014.8 2.2
01/07:00pm 7.4 4.5 4.9 84 1.1 WSW 9 11 5 6 1014.4 1014.4 2.2
01/06:30pm 8.3 5.5 5.2 81 1.4 SW 9 11 5 6 1014.1 1014.1 2.2
01/06:00pm 9.7 5.9 5.8 77 1.8 SW 15 17 8 9 1013.6 1013.6 2.2
01/05:30pm 11.2 7.0 5.6 68 2.6 SW 17 22 9 12 1013.2 1013.2 2.2
01/05:00pm 12.2 8.7 7.2 71 2.4 SSW 15 20 8 11 1012.7 1012.7 2.2
01/04:30pm 11.9 7.7 7.4 74 2.2 SSW 19 24 10 13 1012.3 1012.3 2.2
01/04:00pm 13.0 6.9 6.5 64 3.1 SW 28 37 15 20 1011.9 1011.9 2.2
01/03:30pm 12.6 6.7 7.7 72 2.4 SW 28 39 15 21 1011.6 1011.6 2.2
01/03:00pm 12.7 8.3 7.4 70 2.6 WSW 20 32 11 17 1011.3 1011.3 2.2
01/02:30pm 13.5 9.1 7.2 65 3.1 WSW 20 33 11 18 1010.9 1010.9 2.2
01/02:00pm 12.6 8.4 8.2 74 2.2 WSW 20 28 11 15 1011.0 1011.0 2.2
01/01:30pm 14.3 9.7 6.4 59 3.8 SSW 20 26 11 14 1010.6 1010.6 2.2
01/01:00pm 13.0 9.6 7.7 70 2.6 SSW 15 20 8 11 1010.7 1010.7 2.2
01/12:30pm 12.1 8.2 8.7 80 1.7 S 19 28 10 15 1011.1 1011.1 2.2
01/12:00pm 10.7 6.6 8.5 86 1.1 S 20 24 11 13 1011.0 1011.0 2.2
01/11:30am 9.6 5.5 8.6 93 0.5 SSW 20 33 11 18 1011.4 1011.4 1.6
01/11:03am 11.3 4.6 8.0 80 1.6 SW 33 48 18 26 1011.1 1011.1 0.0
01/11:00am 13.1 10.2 8.3 72 2.4 SSW 13 17 7 9 1010.9 1010.9 0.0
01/10:30am 13.4 11.5 8.9 74 2.3 SSW 9 13 5 7 1010.7 1010.7 0.0
01/10:00am 12.6 10.2 8.6 76 2.0 SW 11 15 6 8 1010.9 1010.9 0.0
01/09:30am 12.2 9.7 9.7 85 1.3 SSW 13 17 7 9 1010.9 1010.9 0.0
01/09:00am 12.0 9.9 11.0 94 0.5 WSW 13 19 7 10 1010.6 1010.6 4.2
01/08:30am 10.9 9.7 10.3 96 0.3 WNW 7 11 4 6 1010.4 1010.4 4.2
01/08:00am 10.6 9.4 10.2 97 0.2 WNW 7 9 4 5 1010.2 1010.2 4.2
01/07:30am 10.8 8.8 10.2 96 0.3 W 11 13 6 7 1009.7 1009.7 4.2
01/07:00am 10.9 8.6 10.5 97 0.2 W 13 15 7 8 1009.4 1009.4 4.2
01/06:30am 11.4 9.6 11.0 97 0.2 NW 11 15 6 8 1009.1 1009.1 4.2
01/06:00am 11.3 9.1 10.9 97 0.2 NW 13 19 7 10 1008.8 1008.8 4.0
01/05:30am 11.6 9.1 11.0 96 0.3 NNW 15 19 8 10 1008.7 1008.7 3.8
01/05:00am 11.7 9.6 11.1 96 0.3 NNW 13 19 7 10 1008.6 1008.6 3.6
01/04:30am 11.7 9.2 11.1 96 0.3 NNW 15 17 8 9 1008.4 1008.4 3.6
01/04:00am 11.9 9.5 11.3 96 0.3 N 15 20 8 11 1008.0 1008.0 3.6
01/03:30am 12.0 10.0 11.6 97 0.2 NNW 13 19 7 10 1008.5 1008.5 3.6
01/03:00am 12.1 10.1 11.5 96 0.3 N 13 17 7 9 1008.6 1008.6 3.6
01/02:30am 12.1 10.9 11.5 96 0.3 NNW 9 15 5 8 1008.7 1008.7 2.6
01/02:00am 12.2 10.9 11.3 94 0.5 WNW 9 15 5 8 1008.8 1008.8 1.6
01/01:30am 12.3 9.8 11.2 93 0.6 WNW 15 20 8 11 1009.1 1009.1 1.0
01/01:00am 12.3 10.1 10.8 90 0.8 NNW 13 17 7 9 1009.3 1009.3 0.2
01/12:30am 12.6 8.8 9.9 83 1.4 W 20 28 11 15 1008.8 1008.8 0.0
01/12:00am 12.6 9.9 9.0 79 1.8 W 13 17 7 9 1008.2 1008.2 0.0
 
Date/Time
CST
Temp
°C
App
Temp
°C
Dew
Point
Rel
Hum
%
Delta-T
°C
Wind Press
QNH
hPa
Press
MSL
hPa
Rain
since 9 am
mm
Dir
 
Spd
km/h
Gust
km/h
Spd
kts
Gust
kts
31/11:30pm 12.7 10.4 8.9 78 1.9 W 11 13 6 7 1008.6 1008.6 0.0
31/11:00pm 13.1 9.7 7.8 70 2.6 NNW 15 19 8 10 1008.9 1008.9 0.0
31/10:30pm 13.8 10.7 7.3 65 3.2 NNW 13 17 7 9 1008.3 1008.3 0.0
31/10:00pm 13.3 11.0 7.6 68 2.8 N 9 17 5 9 1008.4 1008.4 0.0
31/09:30pm 13.2 10.6 7.7 69 2.7 NNE 11 13 6 7 1009.1 1009.1 0.0
31/09:00pm 13.1 10.1 7.8 70 2.6 NE 13 15 7 8 1009.2 1009.2 0.0
31/08:30pm 13.1 11.4 8.3 72 2.4 N 7 9 4 5 1009.9 1009.9 0.0
31/08:00pm 13.1 12.3 8.1 71 2.5 WSW 2 7 1 4 1010.0 1010.0 0.0
31/07:30pm 13.7 11.5 7.9 68 2.9 NE 9 11 5 6 1009.8 1009.8 0.0
31/07:00pm 14.3 12.7 8.1 66 3.1 NNW 6 9 3 5 1010.0 1010.0 0.0
31/06:30pm 14.8 12.6 7.8 63 3.5 NW 9 11 5 6 1010.0 1010.0 0.0
31/06:00pm 15.1 11.8 6.2 55 4.3 WNW 13 19 7 10 1009.9 1009.9 0.0
31/05:30pm 17.6 13.3 3.5 39 6.6 NNE 15 17 8 9 1008.7 1008.7 0.0
31/05:00pm 17.6 14.0 5.2 44 6.0 N 13 15 7 8 1009.1 1009.1 0.0
31/04:30pm 18.1 13.2 3.9 39 6.7 N 19 24 10 13 1009.7 1009.7 0.0
31/04:00pm 18.3 13.0 5.1 41 6.4 N 22 28 12 15 1010.1 1010.1 0.0
31/03:30pm 19.2 14.3 5.0 39 6.9 N 20 30 11 16 1010.3 1010.3 0.0
31/03:00pm 19.8 14.6 5.4 39 7.1 N 22 33 12 18 1010.8 1010.9 0.0
31/02:30pm 20.0 15.4 6.5 41 6.8 N 20 28 11 15 1010.8 1010.9 0.0
31/02:00pm 20.3 14.1 4.4 35 7.7 N 26 37 14 20 1011.0 1011.1 0.0
31/01:30pm 20.6 15.6 6.3 39 7.2 N 22 30 12 16 1011.5 1011.6 0.0
31/01:00pm 19.6 14.5 6.2 41 6.7 N 22 32 12 17 1012.1 1012.2 0.0
31/12:30pm 19.4 13.2 4.2 36 7.3 N 26 35 14 19 1012.4 1012.5 0.0
31/12:00pm 19.4 13.2 4.5 37 7.2 N 26 35 14 19 1012.9 1013.0 0.0
31/11:30am 19.9 15.1 5.5 39 7.1 N 20 30 11 16 1013.3 1013.4 0.0
31/11:00am 18.7 13.5 5.4 41 6.5 N 22 35 12 19 1013.9 1014.0 0.0
31/10:30am 18.5 13.5 4.5 39 6.7 N 20 30 11 16 1014.3 1014.4 0.0
31/10:00am 17.2 11.9 5.1 44 5.8 N 22 30 12 16 1014.5 1014.6 0.0
31/09:30am 16.2 11.7 6.1 51 4.9 N 19 28 10 15 1014.8 1014.9 0.0
31/09:00am 13.8 9.0 4.7 54 4.2 NNE 19 26 10 14 1015.1 1015.2 0.0
31/08:30am 13.2 8.8 5.0 57 3.8 NNE 17 22 9 12 1015.4 1015.5 0.0
31/08:00am 12.4 8.3 4.5 58 3.6 NNE 15 20 8 11 1015.5 1015.6 0.0
31/07:30am 11.9 7.8 4.4 60 3.4 N 15 20 8 11 1015.7 1015.8 0.0
31/07:00am 11.5 7.5 4.7 63 3.1 NNE 15 20 8 11 1015.7 1015.8 0.0
31/06:30am 11.9 7.0 4.1 59 3.5 N 19 28 10 15 1015.8 1015.9 0.0
31/06:00am 12.4 7.2 3.7 55 3.9 NNE 20 30 11 16 1015.5 1015.6 0.0
31/05:30am 11.9 6.5 4.4 60 3.4 NNE 22 30 12 16 1015.3 1015.4 0.0
31/05:00am 11.7 6.3 4.4 61 3.3 NNE 22 30 12 16 1015.3 1015.4 0.0
31/04:30am 11.6 6.3 4.8 63 3.1 NNE 22 28 12 15 1015.7 1015.8 0.0
31/04:00am 11.6 6.3 4.8 63 3.1 NNE 22 30 12 16 1015.8 1015.9 0.0
31/03:30am 12.1 7.2 4.9 61 3.3 NNE 20 28 11 15 1016.1 1016.2 0.0
31/03:00am 12.0 7.6 5.0 62 3.2 NNE 17 24 9 13 1016.2 1016.3 0.0
31/02:30am 11.7 7.4 5.4 65 2.9 NNE 17 22 9 12 1016.4 1016.5 0.0
31/02:00am 11.6 7.3 5.3 65 2.9 NE 17 20 9 11 1016.6 1016.7 0.0
31/01:30am 10.2 6.4 5.6 73 2.1 NE 15 17 8 9 1017.0 1017.1 0.0
31/01:00am 8.4 6.2 6.2 86 1.0 NNW 7 11 4 6 1017.5 1017.6 0.0
31/12:30am 9.3 6.7 6.3 81 1.4 NNW 9 11 5 6 1017.6 1017.7 0.0
31/12:00am 12.0 9.1 6.3 68 2.7 N 11 15 6 8 1017.8 1017.9 0.0
 
Date/Time
CST
Temp
°C
App
Temp
°C
Dew
Point
Rel
Hum
%
Delta-T
°C
Wind Press
QNH
hPa
Press
MSL
hPa
Rain
since 9 am
mm
Dir
 
Spd
km/h
Gust
km/h
Spd
kts
Gust
kts
30/11:30pm 12.7 9.5 6.9 68 2.8 NE 13 17 7 9 1017.8 1017.9 0.0
30/11:00pm 12.9 9.8 7.1 68 2.8 NE 13 17 7 9 1018.2 1018.3 0.0
30/10:30pm 13.3 10.2 7.1 66 3.0 NE 13 15 7 8 1018.6 1018.7 0.0
30/10:00pm 12.3 9.3 7.6 73 2.3 ENE 13 15 7 8 1018.8 1018.9 0.0
30/09:30pm 12.6 9.6 7.7 72 2.4 ENE 13 15 7 8 1019.1 1019.2 0.0
30/09:00pm 13.1 10.2 8.3 72 2.4 ENE 13 15 7 8 1019.4 1019.5 0.0
30/08:30pm 12.9 10.1 8.7 75 2.1 E 13 15 7 8 1019.6 1019.7 0.0
30/08:00pm 12.3 9.6 9.1 81 1.6 ENE 13 13 7 7 1019.5 1019.6 0.0
30/07:30pm 12.6 10.7 9.0 79 1.8 E 9 9 5 5 1019.8 1019.9 0.0
30/07:00pm 13.9 12.0 9.2 73 2.4 ENE 9 9 5 5 1019.9 1020.0 0.0
30/06:30pm 15.9 14.2 9.8 67 3.2 E 9 9 5 5 1019.8 1019.9 0.0
30/06:00pm 17.2 15.4 9.3 59 4.1 ENE 9 11 5 6 1019.7 1019.8 0.0
30/05:30pm 19.1 17.6 9.2 52 5.2 NE 7 9 4 5 1019.7 1019.8 0.0
30/05:00pm 20.6 19.0 8.6 46 6.3 N 7 9 4 5 1019.7 1019.8 0.0
30/04:30pm 20.7 18.4 7.5 42 6.8 N 9 13 5 7 1019.8 1019.9 0.0
30/04:00pm 21.3 18.7 7.8 41 7.0 N 11 17 6 9 1019.8 1019.9 0.0
30/03:30pm 21.6 18.2 6.1 36 7.8 N 13 20 7 11 1020.0 1020.1 0.0
30/03:00pm 21.5 18.7 8.4 43 6.9 N 13 20 7 11 1020.2 1020.3 0.0
30/02:30pm 21.5 18.2 8.1 42 7.0 NNW 15 20 8 11 1020.4 1020.5 0.0
30/02:00pm 20.9 18.3 9.2 47 6.2 N 13 19 7 10 1020.9 1021.0 0.0
30/01:30pm 20.7 18.2 9.7 49 5.9 N 13 19 7 10 1021.2 1021.3 0.0
30/01:00pm 20.2 17.1 8.8 48 6.0 N 15 20 8 11 1021.6 1021.7 0.0
30/12:30pm 19.9 16.9 9.1 49 5.7 N 15 20 8 11 1022.0 1022.1 0.0
30/12:00pm 19.1 16.5 9.4 53 5.1 N 13 19 7 10 1022.5 1022.6 0.0
30/11:30am 18.2 15.1 8.7 54 4.9 N 15 20 8 11 1023.1 1023.2 0.0

Other Formats:

Comma delimited format used in spreadsheet applications
http://www.bom.gov.au/fwo/IDS60801/IDS60801.94817.axf

JavaScript Object Notation format (JSON) in row-major order
http://www.bom.gov.au/fwo/IDS60801/IDS60801.94817.json